createdAt,value
2022-11-23T00:01:21.829Z,20.40
2022-11-23T00:03:52.356Z,19.80
2022-11-23T00:06:21.427Z,17.58
2022-11-23T00:08:49.093Z,16.27
2022-11-23T00:11:16.589Z,18.20
2022-11-23T00:13:43.962Z,14.82
2022-11-23T00:16:18.856Z,18.40
2022-11-23T00:18:46.381Z,14.50
2022-11-23T00:21:18.052Z,19.30
2022-11-23T00:23:45.589Z,15.90
2022-11-23T00:26:13.682Z,14.32
2022-11-23T00:28:42.123Z,17.02
2022-11-23T00:31:14.444Z,14.35
2022-11-23T00:33:41.564Z,16.40
2022-11-23T00:36:12.130Z,15.73
2022-11-23T00:38:39.002Z,15.50
2022-11-23T00:41:11.813Z,15.48
2022-11-23T00:43:39.234Z,12.88
2022-11-23T00:46:15.153Z,12.82
2022-11-23T00:48:43.382Z,14.18
2022-11-23T00:51:14.185Z,12.32
2022-11-23T00:53:41.473Z,16.83
2022-11-23T00:56:08.702Z,15.90
2022-11-23T00:58:38.794Z,16.42
2022-11-23T01:01:14.195Z,17.92
2022-11-23T01:03:43.673Z,14.40
2022-11-23T01:06:13.766Z,15.75
2022-11-23T01:08:41.796Z,16.85
2022-11-23T01:11:11.723Z,14.20
2022-11-23T01:13:40.353Z,17.35
2022-11-23T01:16:13.205Z,13.13
2022-11-23T01:18:40.106Z,15.20
2022-11-23T01:21:07.209Z,16.52
2022-11-23T01:23:34.055Z,17.20
2022-11-23T01:26:20.098Z,12.50
2022-11-23T01:28:47.369Z,14.85
2022-11-23T01:31:19.993Z,14.77
2022-11-23T01:33:47.280Z,13.85
2022-11-23T01:36:19.797Z,14.55
2022-11-23T01:38:49.645Z,14.02
2022-11-23T01:41:22.773Z,11.13
2022-11-23T01:43:50.653Z,12.13
2022-11-23T01:46:18.290Z,14.32
2022-11-23T01:48:52.919Z,15.68
2022-11-23T01:51:32.136Z,12.88
2022-11-23T01:54:04.782Z,11.05
2022-11-23T01:56:37.713Z,10.77
2022-11-23T01:59:10.497Z,9.55
2022-11-23T02:01:37.932Z,11.45
2022-11-23T02:04:08.672Z,11.23
2022-11-23T02:06:37.074Z,13.38
2022-11-23T02:09:04.047Z,14.63
2022-11-23T02:11:31.294Z,11.45
2022-11-23T02:13:58.172Z,13.95
2022-11-23T02:16:25.346Z,8.15
2022-11-23T02:18:53.178Z,12.88
2022-11-23T02:21:20.922Z,12.27
2022-11-23T02:24:07.503Z,17.08
2022-11-23T02:26:36.821Z,17.13
2022-11-23T02:29:09.549Z,18.42
2022-11-23T02:31:36.597Z,22.40
2022-11-23T02:34:03.612Z,16.60
2022-11-23T02:36:42.600Z,14.00
2022-11-23T02:39:14.101Z,15.00
2022-11-23T02:41:48.103Z,18.60
2022-11-23T02:47:05.576Z,13.90
2022-11-23T02:49:32.565Z,15.63
2022-11-23T02:52:00.124Z,20.95
2022-11-23T02:54:27.505Z,12.75
2022-11-23T02:56:54.510Z,16.08
2022-11-23T02:59:21.283Z,15.00
2022-11-23T03:01:48.508Z,18.45
2022-11-23T03:04:15.458Z,18.98
2022-11-23T03:06:42.910Z,19.20
2022-11-23T03:09:09.847Z,20.45
2022-11-23T03:11:37.122Z,16.40
2022-11-23T03:14:04.455Z,17.25
2022-11-23T03:16:31.503Z,16.45
2022-11-23T03:18:58.275Z,17.92
2022-11-23T03:21:25.484Z,19.17
2022-11-23T03:23:52.298Z,20.85
2022-11-23T03:26:19.296Z,17.80
2022-11-23T03:28:46.061Z,19.17
2022-11-23T03:31:13.212Z,15.07
2022-11-23T03:33:40.047Z,19.40
2022-11-23T03:36:07.635Z,13.30
2022-11-23T03:38:34.370Z,16.83
2022-11-23T03:41:01.479Z,15.77
2022-11-23T03:43:28.251Z,14.25
2022-11-23T03:45:55.300Z,15.98
2022-11-23T03:48:22.128Z,12.45
2022-11-23T03:50:49.246Z,14.43
2022-11-23T03:53:16.006Z,17.98
2022-11-23T03:55:45.615Z,11.18
2022-11-23T03:58:12.401Z,12.38
2022-11-23T04:00:39.503Z,9.82
2022-11-23T04:03:06.431Z,12.13
2022-11-23T04:05:33.459Z,11.32
2022-11-23T04:08:00.917Z,13.02
2022-11-23T04:10:27.923Z,9.48
2022-11-23T04:12:54.690Z,10.48
2022-11-23T04:15:21.702Z,10.52
2022-11-23T04:17:48.576Z,12.02
2022-11-23T04:20:15.597Z,10.30
2022-11-23T04:22:42.426Z,6.78
2022-11-23T04:25:10.069Z,8.60
2022-11-23T04:27:36.994Z,8.65
2022-11-23T04:30:04.641Z,7.68
2022-11-23T04:32:31.453Z,9.85
2022-11-23T04:34:58.510Z,9.98
2022-11-23T04:37:25.276Z,9.77
2022-11-23T04:39:52.483Z,8.38
2022-11-23T04:42:19.267Z,6.00
2022-11-23T04:44:46.838Z,10.35
2022-11-23T04:47:13.817Z,7.63
2022-11-23T04:49:40.829Z,8.18
2022-11-23T04:52:07.673Z,10.63
2022-11-23T04:54:34.762Z,9.95
2022-11-23T04:57:01.561Z,8.07
2022-11-23T04:59:28.976Z,6.50
2022-11-23T05:01:55.872Z,6.25
2022-11-23T05:04:22.982Z,6.63
2022-11-23T05:06:49.751Z,6.07
2022-11-23T05:09:16.851Z,6.35
2022-11-23T05:11:43.676Z,11.70
2022-11-23T05:14:10.910Z,5.38
2022-11-23T05:16:37.633Z,8.18
2022-11-23T05:19:04.691Z,6.60
2022-11-23T05:21:31.474Z,5.18
2022-11-23T05:23:58.549Z,9.75
2022-11-23T05:26:25.398Z,8.15
2022-11-23T05:28:52.513Z,9.98
2022-11-23T05:31:19.560Z,9.02
2022-11-23T05:33:46.690Z,8.98
2022-11-23T05:36:14.091Z,7.97
2022-11-23T05:38:41.554Z,7.78
2022-11-23T05:41:08.498Z,8.68
2022-11-23T05:43:35.604Z,7.82
2022-11-23T05:46:02.835Z,9.82
2022-11-23T05:48:29.938Z,9.20
2022-11-23T05:51:02.171Z,8.23
2022-11-23T05:53:32.337Z,9.63
2022-11-23T05:56:01.284Z,7.72
2022-11-23T05:58:29.369Z,16.23
2022-11-23T06:01:00.364Z,7.28
2022-11-23T06:03:27.814Z,8.88
2022-11-23T06:05:54.691Z,11.43
2022-11-23T06:08:21.886Z,9.55
2022-11-23T06:10:48.728Z,10.02
2022-11-23T06:13:16.031Z,12.80
2022-11-23T06:15:42.863Z,13.55
2022-11-23T06:18:10.007Z,12.77
2022-11-23T06:20:37.058Z,10.57
2022-11-23T06:23:04.235Z,10.98
2022-11-23T06:25:31.107Z,9.68
2022-11-23T06:28:00.625Z,13.57
2022-11-23T06:30:28.878Z,10.93
2022-11-23T06:32:56.068Z,14.07
2022-11-23T06:35:23.456Z,15.52
2022-11-23T06:37:51.611Z,11.48
2022-11-23T06:40:18.450Z,9.90
2022-11-23T06:42:46.009Z,12.10
2022-11-23T06:45:12.984Z,13.50
2022-11-23T06:47:40.134Z,10.30
2022-11-23T06:50:07.394Z,14.25
2022-11-23T06:52:34.432Z,13.77
2022-11-23T06:55:01.185Z,10.77
2022-11-23T06:57:28.318Z,12.15
2022-11-23T06:59:55.105Z,8.93
2022-11-23T07:02:22.199Z,11.38
2022-11-23T07:04:51.276Z,14.98
2022-11-23T07:07:18.421Z,14.77
2022-11-23T07:09:45.223Z,9.65
2022-11-23T07:12:12.272Z,11.13
2022-11-23T07:14:39.079Z,13.52
2022-11-23T07:17:06.098Z,9.52
2022-11-23T07:19:33.178Z,11.07
2022-11-23T07:22:00.462Z,12.13
2022-11-23T07:24:27.233Z,13.20
2022-11-23T07:26:54.294Z,10.05
2022-11-23T07:29:21.166Z,8.70
2022-11-23T07:31:48.376Z,8.82
2022-11-23T07:34:15.114Z,10.48
2022-11-23T07:36:43.266Z,9.57
2022-11-23T07:39:10.101Z,10.40
2022-11-23T07:41:37.213Z,14.13
2022-11-23T07:44:04.100Z,11.02
2022-11-23T07:46:31.180Z,10.25
2022-11-23T07:49:02.283Z,13.27
2022-11-23T07:51:30.176Z,9.70
2022-11-23T07:53:57.528Z,11.90
2022-11-23T07:56:24.583Z,12.40
2022-11-23T07:58:51.400Z,13.45
2022-11-23T08:01:19.454Z,10.35
2022-11-23T08:03:50.489Z,7.97
2022-11-23T08:06:17.838Z,11.23
2022-11-23T08:08:44.628Z,11.82
2022-11-23T08:11:14.756Z,12.65
2022-11-23T08:13:44.291Z,14.38
2022-11-23T08:16:11.305Z,11.57
2022-11-23T08:18:38.063Z,12.05
2022-11-23T08:21:05.330Z,11.60
2022-11-23T08:23:32.563Z,10.63
2022-11-23T08:26:02.263Z,8.23
2022-11-23T08:28:29.161Z,9.07
2022-11-23T08:30:56.186Z,8.32
2022-11-23T08:33:23.223Z,9.82
2022-11-23T08:35:50.371Z,11.57
2022-11-23T08:38:17.177Z,10.43
2022-11-23T08:40:47.222Z,10.82
2022-11-23T08:43:14.027Z,9.98
2022-11-23T08:45:41.151Z,9.80
2022-11-23T08:48:10.937Z,10.52
2022-11-23T08:50:38.634Z,11.48
2022-11-23T08:53:05.975Z,8.55
2022-11-23T08:55:33.158Z,7.40
2022-11-23T08:58:00.031Z,9.20
2022-11-23T09:00:30.448Z,8.10
2022-11-23T09:03:00.192Z,9.70
2022-11-23T09:05:29.009Z,8.55
2022-11-23T09:07:59.242Z,8.85
2022-11-23T09:10:26.738Z,12.05
2022-11-23T09:12:53.979Z,9.95
2022-11-23T09:15:21.269Z,8.65
2022-11-23T09:17:48.059Z,9.20
2022-11-23T09:20:17.559Z,9.00
2022-11-23T09:22:44.358Z,8.48
2022-11-23T09:25:11.593Z,9.27
2022-11-23T09:27:38.504Z,9.88
2022-11-23T09:30:06.019Z,9.73
2022-11-23T09:32:33.015Z,9.40
2022-11-23T09:35:03.482Z,11.05
2022-11-23T09:37:30.271Z,10.20
2022-11-23T09:39:57.401Z,9.25
2022-11-23T09:42:48.976Z,8.02
2022-11-23T09:45:37.775Z,9.77
2022-11-23T09:48:28.679Z,8.90
2022-11-23T09:51:11.912Z,8.70
2022-11-23T09:53:45.946Z,9.25
2022-11-23T09:56:20.405Z,8.10
2022-11-23T09:58:50.521Z,9.77
2022-11-23T10:01:17.645Z,8.57
2022-11-23T10:03:48.757Z,9.82
2022-11-23T10:06:27.921Z,6.85
2022-11-23T10:09:32.371Z,9.00
2022-11-23T10:15:15.951Z,7.35
2022-11-23T10:18:18.783Z,9.63
2022-11-23T10:21:29.958Z,8.82
2022-11-23T10:24:21.161Z,8.88
2022-11-23T10:26:51.443Z,9.27
2022-11-23T10:29:38.032Z,11.02
2022-11-23T10:32:24.946Z,11.15
2022-11-23T10:35:14.259Z,11.98
2022-11-23T10:37:41.547Z,8.75
2022-11-23T10:40:21.502Z,10.40
2022-11-23T10:42:55.645Z,8.95
2022-11-23T10:45:25.203Z,8.25
2022-11-23T10:48:00.521Z,7.32
2022-11-23T10:50:30.233Z,10.25
2022-11-23T10:53:00.990Z,8.07
2022-11-23T10:55:46.983Z,8.70
2022-11-23T10:58:41.243Z,8.07
2022-11-23T11:01:14.782Z,7.47
2022-11-23T11:03:41.577Z,8.27
2022-11-23T11:06:21.228Z,10.95
2022-11-23T11:08:51.303Z,9.82
2022-11-23T11:11:22.535Z,9.15
2022-11-23T11:13:49.411Z,8.52
2022-11-23T11:16:21.753Z,8.65
2022-11-23T11:18:48.677Z,8.85
2022-11-23T11:21:35.758Z,11.20
2022-11-23T11:24:05.728Z,9.68
2022-11-23T11:26:36.046Z,8.77
2022-11-23T11:29:06.008Z,13.60
2022-11-23T11:31:50.365Z,10.07
2022-11-23T11:36:57.903Z,12.00
2022-11-23T11:39:49.566Z,9.43
2022-11-23T11:42:38.845Z,10.75
2022-11-23T11:45:07.772Z,7.95
2022-11-23T11:47:39.682Z,9.40
2022-11-23T11:50:21.293Z,8.77
2022-11-23T11:52:54.635Z,9.30
2022-11-23T11:55:27.162Z,9.52
2022-11-23T11:58:10.174Z,8.77
2022-11-23T12:00:44.713Z,12.68
2022-11-23T12:03:32.345Z,9.18
2022-11-23T12:06:08.590Z,12.02
2022-11-23T12:08:54.115Z,8.52
2022-11-23T12:11:21.080Z,8.85
2022-11-23T12:13:48.711Z,11.95
2022-11-23T12:16:18.056Z,9.45
2022-11-23T12:19:00.224Z,11.85
2022-11-23T12:21:37.046Z,9.73
2022-11-23T12:24:20.565Z,8.65
2022-11-23T12:26:50.009Z,9.90
2022-11-23T12:29:52.104Z,10.13
2022-11-23T12:33:01.408Z,13.98
2022-11-23T12:35:46.887Z,10.52
2022-11-23T12:38:32.182Z,9.85
2022-11-23T12:41:24.186Z,11.35
2022-11-23T12:44:09.684Z,9.63
2022-11-23T12:46:55.690Z,7.93
2022-11-23T12:49:52.018Z,9.13
2022-11-23T12:52:37.627Z,8.45
2022-11-23T12:55:24.057Z,14.13
2022-11-23T12:58:16.761Z,8.40
2022-11-23T13:00:53.582Z,12.73
2022-11-23T13:03:38.866Z,6.93
2022-11-23T13:06:17.634Z,10.70
2022-11-23T13:08:59.449Z,9.02
2022-11-23T13:11:48.123Z,9.20
2022-11-23T13:14:38.065Z,10.50
2022-11-23T13:17:27.626Z,8.18
2022-11-23T13:20:01.917Z,9.38
2022-11-23T13:22:31.040Z,11.45
2022-11-23T13:25:14.900Z,7.13
2022-11-23T13:27:55.192Z,5.07
2022-11-23T13:30:22.255Z,8.70
2022-11-23T13:33:02.283Z,6.28
2022-11-23T13:35:29.280Z,7.50
2022-11-23T13:37:55.978Z,8.77
2022-11-23T13:40:22.797Z,8.35
2022-11-23T13:42:52.422Z,11.43
2022-11-23T13:45:22.294Z,9.20
2022-11-23T13:48:19.346Z,7.78
2022-11-23T13:50:50.935Z,7.72
2022-11-23T13:53:42.795Z,7.85
2022-11-23T13:56:26.913Z,9.80
2022-11-23T13:59:13.388Z,10.05
2022-11-23T14:02:08.078Z,9.25
2022-11-23T14:04:40.235Z,17.92
2022-11-23T14:07:13.364Z,9.50
2022-11-23T14:09:46.355Z,8.88
2022-11-23T14:12:23.826Z,8.43
2022-11-23T14:14:56.871Z,12.65
2022-11-23T14:17:35.687Z,10.35
2022-11-23T14:20:30.441Z,12.80
2022-11-23T14:25:50.175Z,10.15
2022-11-23T14:28:57.850Z,7.35
2022-11-23T14:31:43.583Z,10.10
2022-11-23T14:34:35.216Z,10.95
2022-11-23T14:37:39.718Z,11.88
2022-11-23T14:40:27.860Z,8.93
2022-11-23T14:42:57.236Z,9.43
2022-11-23T14:45:29.760Z,15.00
2022-11-23T14:47:58.418Z,14.60
2022-11-23T14:50:29.483Z,15.18
2022-11-23T14:52:59.042Z,11.57
2022-11-23T14:55:29.621Z,12.27
2022-11-23T14:58:03.434Z,11.40
2022-11-23T15:00:42.317Z,12.32
2022-11-23T15:03:48.984Z,10.35
2022-11-23T15:06:13.212Z,9.90
2022-11-23T15:08:53.406Z,11.52
2022-11-23T15:11:24.560Z,9.93
2022-11-23T15:14:02.253Z,7.30
2022-11-23T15:16:29.750Z,9.15
2022-11-23T15:18:57.152Z,12.13
2022-11-23T15:21:27.975Z,14.57
2022-11-23T15:23:57.924Z,10.35
2022-11-23T15:26:47.247Z,14.07
2022-11-23T15:29:52.358Z,16.15
2022-11-23T15:32:37.147Z,12.63
2022-11-23T15:35:08.117Z,16.20
2022-11-23T15:37:45.466Z,11.98
2022-11-23T15:40:18.108Z,13.10
2022-11-23T15:42:46.890Z,14.23
2022-11-23T15:45:33.967Z,12.32
2022-11-23T15:48:06.378Z,12.32
2022-11-23T15:50:34.396Z,13.32
2022-11-23T15:53:01.734Z,11.15
2022-11-23T15:55:30.297Z,14.85
2022-11-23T15:57:58.008Z,16.98
2022-11-23T16:00:26.112Z,14.57
2022-11-23T16:02:53.318Z,22.58
2022-11-23T16:05:22.811Z,23.17
2022-11-23T16:07:53.915Z,20.83
2022-11-23T16:10:26.692Z,17.55
2022-11-23T16:12:58.842Z,15.02
2022-11-23T16:15:32.635Z,22.75
2022-11-23T16:18:02.923Z,16.85
2022-11-23T16:20:30.875Z,15.45
2022-11-23T16:23:02.907Z,17.05
2022-11-23T16:25:34.808Z,13.80
2022-11-23T16:28:04.289Z,17.65
2022-11-23T16:30:39.610Z,20.60
2022-11-23T16:33:13.136Z,17.52
2022-11-23T16:38:06.801Z,18.20
2022-11-23T16:40:33.914Z,15.45
2022-11-23T16:43:00.900Z,13.65
2022-11-23T16:45:28.022Z,14.77
2022-11-23T16:48:00.029Z,12.45
2022-11-23T16:50:30.095Z,14.18
2022-11-23T16:52:57.903Z,13.20
2022-11-23T16:55:25.162Z,11.65
2022-11-23T16:57:52.389Z,12.95
2022-11-23T17:00:23.176Z,15.02
2022-11-23T17:02:50.002Z,18.10
2022-11-23T17:05:19.810Z,13.38
2022-11-23T17:07:47.198Z,14.50
2022-11-23T17:10:14.726Z,14.52
2022-11-23T17:13:04.205Z,18.27
2022-11-23T17:15:31.282Z,18.90
2022-11-23T17:17:58.127Z,13.32
2022-11-23T17:20:25.335Z,15.80
2022-11-23T17:22:52.178Z,17.77
2022-11-23T17:25:19.300Z,19.27
2022-11-23T17:27:48.871Z,19.42
2022-11-23T17:30:19.266Z,14.95
2022-11-23T17:32:48.515Z,17.95
2022-11-23T17:35:16.691Z,23.55
2022-11-23T17:37:43.896Z,21.83
2022-11-23T17:40:16.000Z,21.92
2022-11-23T17:42:42.838Z,16.75
2022-11-23T17:45:11.025Z,19.67
2022-11-23T17:47:38.631Z,17.33
2022-11-23T17:50:09.809Z,23.48
2022-11-23T17:52:36.986Z,23.08
2022-11-23T17:55:04.370Z,27.52
2022-11-23T17:57:31.323Z,21.15
2022-11-23T18:00:01.997Z,21.75
2022-11-23T18:02:32.783Z,24.23
2022-11-23T18:04:59.930Z,26.20
2022-11-23T18:07:26.902Z,23.83
2022-11-23T18:09:54.038Z,27.15
2022-11-23T18:12:21.596Z,24.25
2022-11-23T18:14:48.630Z,25.80
2022-11-23T18:17:16.462Z,24.52
2022-11-23T18:19:43.535Z,24.85
2022-11-23T18:22:10.455Z,21.35
2022-11-23T18:24:37.602Z,25.52
2022-11-23T18:27:04.344Z,19.42
2022-11-23T18:29:31.658Z,19.08
2022-11-23T18:31:58.612Z,19.48
2022-11-23T18:34:25.692Z,18.27
2022-11-23T18:36:52.546Z,19.60
2022-11-23T18:39:19.715Z,21.95
2022-11-23T18:41:46.611Z,25.20
2022-11-23T18:44:13.676Z,20.20
2022-11-23T18:46:41.235Z,18.83
2022-11-23T18:49:08.436Z,19.13
2022-11-23T18:51:35.227Z,21.98
2022-11-23T18:54:02.339Z,18.80
2022-11-23T18:56:29.110Z,23.40
2022-11-23T18:58:56.304Z,18.42
2022-11-23T19:01:24.059Z,18.75
2022-11-23T19:03:52.910Z,18.00
2022-11-23T19:06:22.443Z,24.05
2022-11-23T19:08:53.457Z,23.10
2022-11-23T19:11:22.961Z,21.52
2022-11-23T19:13:54.979Z,18.02
2022-11-23T19:16:26.816Z,26.30
2022-11-23T19:18:55.450Z,23.05
2022-11-23T19:21:25.820Z,21.73
2022-11-23T19:23:54.133Z,21.05
2022-11-23T19:26:21.510Z,22.35
2022-11-23T19:28:48.615Z,24.27
2022-11-23T19:31:18.591Z,24.92
2022-11-23T19:33:47.066Z,23.92
2022-11-23T19:36:16.727Z,20.90
2022-11-23T19:38:44.582Z,23.60
2022-11-23T19:41:12.252Z,26.73
2022-11-23T19:43:39.494Z,23.15
2022-11-23T19:46:12.539Z,21.75
2022-11-23T19:48:40.537Z,22.98
2022-11-23T19:51:11.070Z,21.85
2022-11-23T19:53:39.141Z,27.58
2022-11-23T19:56:14.792Z,22.55
2022-11-23T19:58:42.757Z,22.48
2022-11-23T20:01:13.693Z,20.55
2022-11-23T20:03:43.583Z,20.23
2022-11-23T20:06:16.384Z,21.25
2022-11-23T20:08:43.738Z,20.35
2022-11-23T20:11:13.653Z,20.67
2022-11-23T20:13:41.174Z,24.08
2022-11-23T20:16:12.459Z,23.67
2022-11-23T20:18:40.443Z,20.85
2022-11-23T20:21:11.994Z,24.23
2022-11-23T20:23:40.087Z,19.02
2022-11-23T20:26:07.463Z,21.27
2022-11-23T20:28:34.834Z,18.95
2022-11-23T20:31:05.949Z,19.08
2022-11-23T20:33:33.819Z,21.65
2022-11-23T20:36:11.143Z,19.67
2022-11-23T20:38:39.078Z,22.05
2022-11-23T20:41:14.004Z,18.73
2022-11-23T20:43:42.050Z,20.10
2022-11-23T20:46:11.761Z,19.98
2022-11-23T20:48:46.417Z,19.88
2022-11-23T20:51:14.528Z,19.75
2022-11-23T20:53:41.820Z,20.73
2022-11-23T20:56:10.755Z,20.20
2022-11-23T20:58:38.622Z,21.70
2022-11-23T21:01:06.831Z,21.27
2022-11-23T21:03:35.549Z,22.90
2022-11-23T21:06:07.113Z,27.08
2022-11-23T21:08:35.143Z,21.48
2022-11-23T21:11:43.270Z,25.73
2022-11-23T21:14:19.025Z,22.85
2022-11-23T21:16:55.821Z,24.70
2022-11-23T21:19:37.853Z,23.40
2022-11-23T21:22:08.147Z,27.33
2022-11-23T21:24:36.274Z,23.92
2022-11-23T21:27:04.849Z,21.83
2022-11-23T21:29:32.187Z,23.27
2022-11-23T21:31:59.341Z,19.55
2022-11-23T21:34:28.465Z,21.65
2022-11-23T21:36:56.539Z,20.95
2022-11-23T21:39:24.297Z,18.52
2022-11-23T21:41:53.368Z,23.25
2022-11-23T21:44:22.294Z,22.33
2022-11-23T21:46:49.254Z,17.25
2022-11-23T21:49:16.494Z,20.15
2022-11-23T21:51:44.604Z,22.38
2022-11-23T21:54:15.462Z,23.58
2022-11-23T21:56:44.040Z,21.08
2022-11-23T21:59:11.666Z,21.85
2022-11-23T22:01:38.816Z,18.30
2022-11-23T22:04:10.598Z,19.73
2022-11-23T22:06:39.025Z,20.55
2022-11-23T22:09:09.239Z,22.25
2022-11-23T22:11:37.819Z,18.02
2022-11-23T22:14:11.804Z,21.80
2022-11-23T22:16:43.990Z,18.23
2022-11-23T22:19:13.295Z,23.63
2022-11-23T22:21:41.776Z,17.40
2022-11-23T22:24:14.307Z,18.90
2022-11-23T22:26:41.856Z,18.02
2022-11-23T22:29:09.748Z,17.77
2022-11-23T22:31:36.800Z,17.02
2022-11-23T22:34:06.001Z,19.60
2022-11-23T22:36:33.120Z,20.00
2022-11-23T22:39:02.781Z,17.52
2022-11-23T22:41:34.866Z,18.90
2022-11-23T22:44:02.349Z,17.50
2022-11-23T22:46:29.824Z,17.98
2022-11-23T22:48:59.742Z,18.23
2022-11-23T22:51:28.534Z,13.18
2022-11-23T22:54:00.675Z,16.67
2022-11-23T22:56:28.924Z,14.57
2022-11-23T22:58:56.316Z,17.08
2022-11-23T23:01:26.475Z,14.35
2022-11-23T23:04:01.322Z,13.45
2022-11-23T23:06:31.311Z,16.65
2022-11-23T23:09:00.225Z,16.20
2022-11-23T23:11:30.024Z,17.98
2022-11-23T23:13:57.761Z,15.52
2022-11-23T23:16:25.260Z,15.63
2022-11-23T23:18:54.595Z,20.55
2022-11-23T23:21:22.309Z,15.63
2022-11-23T23:23:51.523Z,15.40
2022-11-23T23:26:20.156Z,14.88
2022-11-23T23:28:47.262Z,14.88
2022-11-23T23:31:16.269Z,15.52
2022-11-23T23:33:44.911Z,15.40
2022-11-23T23:36:14.058Z,13.77
2022-11-23T23:38:41.635Z,20.20
2022-11-23T23:41:09.684Z,16.33
2022-11-23T23:43:37.042Z,15.70
2022-11-23T23:46:07.445Z,20.55
2022-11-23T23:48:36.895Z,16.08
2022-11-23T23:51:15.461Z,18.27
2022-11-23T23:53:43.070Z,16.23
2022-11-23T23:56:22.063Z,18.02
2022-11-23T23:58:49.369Z,20.60
